createdAt,value
2022-08-25T00:00:18.451Z,23.44
2022-08-25T00:02:56.108Z,23.49
2022-08-25T00:05:33.444Z,23.52
2022-08-25T00:08:03.590Z,23.49
2022-08-25T00:10:31.345Z,23.43
2022-08-25T00:12:59.143Z,23.39
2022-08-25T00:15:27.298Z,23.33
2022-08-25T00:17:55.610Z,23.32
2022-08-25T00:20:25.426Z,23.30
2022-08-25T00:22:52.906Z,23.26
2022-08-25T00:25:21.074Z,23.27
2022-08-25T00:27:48.603Z,23.25
2022-08-25T00:30:17.433Z,23.23
2022-08-25T00:32:52.554Z,23.21
2022-08-25T00:35:26.663Z,23.21
2022-08-25T00:37:55.866Z,23.18
2022-08-25T00:40:26.828Z,23.17
2022-08-25T00:42:56.214Z,23.15
2022-08-25T00:45:24.452Z,23.15
2022-08-25T00:47:51.809Z,23.15
2022-08-25T00:50:22.642Z,23.15
2022-08-25T00:53:00.007Z,23.13
2022-08-25T00:55:38.092Z,23.10
2022-08-25T00:58:21.779Z,23.10
2022-08-25T01:00:53.989Z,23.12
2022-08-25T01:03:32.896Z,23.12
2022-08-25T01:06:04.010Z,23.09
2022-08-25T01:08:33.138Z,23.08
2022-08-25T01:11:06.831Z,23.09
2022-08-25T01:13:45.143Z,23.06
2022-08-25T01:16:15.685Z,23.03
2022-08-25T01:18:57.538Z,23.04
2022-08-25T01:21:29.375Z,23.03
2022-08-25T01:23:59.525Z,23.03
2022-08-25T01:26:34.855Z,23.00
2022-08-25T01:29:25.158Z,22.96
2022-08-25T01:32:06.870Z,22.94
2022-08-25T01:34:41.713Z,22.92
2022-08-25T01:37:13.394Z,22.89
2022-08-25T01:39:43.390Z,22.82
2022-08-25T01:42:39.389Z,22.75
2022-08-25T01:45:07.544Z,22.70
2022-08-25T01:47:34.911Z,22.69
2022-08-25T01:50:02.209Z,22.67
2022-08-25T01:52:43.360Z,22.61
2022-08-25T01:55:10.691Z,22.58
2022-08-25T01:57:37.965Z,22.55
2022-08-25T02:00:09.073Z,22.51
2022-08-25T02:02:42.014Z,22.42
2022-08-25T02:05:14.012Z,22.36
2022-08-25T02:07:42.463Z,22.31
2022-08-25T02:10:13.750Z,22.27
2022-08-25T02:12:40.999Z,22.21
2022-08-25T02:15:09.143Z,22.16
2022-08-25T02:17:37.154Z,22.11
2022-08-25T02:20:09.055Z,22.08
2022-08-25T02:22:36.295Z,22.07
2022-08-25T02:25:05.708Z,22.03
2022-08-25T02:27:32.846Z,22.00
2022-08-25T02:30:00.951Z,21.96
2022-08-25T02:32:28.083Z,21.90
2022-08-25T02:34:55.356Z,21.84
2022-08-25T02:37:22.714Z,21.79
2022-08-25T02:39:50.161Z,21.74
2022-08-25T02:42:17.310Z,21.71
2022-08-25T02:44:44.395Z,21.68
2022-08-25T02:47:11.445Z,21.64
2022-08-25T02:49:38.623Z,21.59
2022-08-25T02:52:05.947Z,21.55
2022-08-25T02:54:33.049Z,21.53
2022-08-25T02:57:00.102Z,21.52
2022-08-25T02:59:27.403Z,21.55
2022-08-25T03:01:54.660Z,21.54
2022-08-25T03:04:21.990Z,21.54
2022-08-25T03:06:49.219Z,21.58
2022-08-25T03:09:17.967Z,21.60
2022-08-25T03:11:47.403Z,21.61
2022-08-25T03:14:15.346Z,21.63
2022-08-25T03:16:42.963Z,21.64
2022-08-25T03:19:14.064Z,21.64
2022-08-25T03:21:41.230Z,21.63
2022-08-25T03:24:08.687Z,21.61
2022-08-25T03:26:54.214Z,21.57
2022-08-25T03:29:33.913Z,21.56
2022-08-25T03:32:02.321Z,21.54
2022-08-25T03:34:30.320Z,21.52
2022-08-25T03:36:59.028Z,21.50
2022-08-25T03:39:26.934Z,21.50
2022-08-25T03:41:55.124Z,21.49
2022-08-25T03:44:23.040Z,21.48
2022-08-25T03:46:52.397Z,21.50
2022-08-25T03:49:24.468Z,21.55
2022-08-25T03:51:54.701Z,21.56
2022-08-25T03:54:25.047Z,21.59
2022-08-25T03:56:53.268Z,21.57
2022-08-25T03:59:20.528Z,21.57
2022-08-25T04:01:54.043Z,21.56
2022-08-25T04:04:22.927Z,21.59
2022-08-25T04:06:50.087Z,21.60
2022-08-25T04:09:17.194Z,21.61
2022-08-25T04:11:44.548Z,21.56
2022-08-25T04:14:12.992Z,21.55
2022-08-25T04:16:45.163Z,21.56
2022-08-25T04:19:12.839Z,21.55
2022-08-25T04:21:41.594Z,21.52
2022-08-25T04:24:11.979Z,21.51
2022-08-25T04:26:46.502Z,21.48
2022-08-25T04:29:17.123Z,21.46
2022-08-25T04:31:50.296Z,21.47
2022-08-25T04:34:29.698Z,21.47
2022-08-25T04:37:01.510Z,21.47
2022-08-25T04:39:29.437Z,21.51
2022-08-25T04:41:57.484Z,21.52
2022-08-25T04:44:25.373Z,21.56
2022-08-25T04:46:52.515Z,21.61
2022-08-25T04:49:19.723Z,21.63
2022-08-25T04:51:46.909Z,21.63
2022-08-25T04:54:22.776Z,21.63
2022-08-25T04:56:54.151Z,21.63
2022-08-25T04:59:22.779Z,21.66
2022-08-25T05:01:52.353Z,21.69
2022-08-25T05:04:28.206Z,21.74
2022-08-25T05:06:58.689Z,21.84
2022-08-25T05:09:27.353Z,21.91
2022-08-25T05:11:55.362Z,21.98
2022-08-25T05:14:26.377Z,22.03
2022-08-25T05:16:54.920Z,22.13
2022-08-25T05:19:24.814Z,22.22
2022-08-25T05:21:53.750Z,22.60
2022-08-25T05:24:24.416Z,23.00
2022-08-25T05:26:51.515Z,24.19
2022-08-25T05:29:19.494Z,25.33
2022-08-25T05:31:50.882Z,26.24
2022-08-25T05:34:19.683Z,27.00
2022-08-25T05:36:49.498Z,27.54
2022-08-25T05:39:16.684Z,27.20
2022-08-25T05:41:44.119Z,26.01
2022-08-25T05:44:12.668Z,25.13
2022-08-25T05:46:39.758Z,24.55
2022-08-25T05:49:06.945Z,24.15
2022-08-25T05:51:35.183Z,23.86
2022-08-25T05:54:03.482Z,23.64
2022-08-25T05:56:31.316Z,23.49
2022-08-25T05:58:58.650Z,23.37
2022-08-25T06:01:47.673Z,23.30
2022-08-25T06:04:18.199Z,23.21
2022-08-25T06:06:45.386Z,23.20
2022-08-25T06:09:12.755Z,23.18
2022-08-25T06:11:41.509Z,23.16
2022-08-25T06:14:10.565Z,23.16
2022-08-25T06:16:39.707Z,23.18
2022-08-25T06:19:11.159Z,23.23
2022-08-25T06:21:40.557Z,23.27
2022-08-25T06:24:15.458Z,23.31
2022-08-25T06:26:44.158Z,23.36
2022-08-25T06:29:14.143Z,23.41
2022-08-25T06:31:42.578Z,23.50
2022-08-25T06:34:11.878Z,23.58
2022-08-25T06:36:39.948Z,23.66
2022-08-25T06:39:08.415Z,23.73
2022-08-25T06:41:37.946Z,23.84
2022-08-25T06:44:05.997Z,23.93
2022-08-25T06:46:36.523Z,23.99
2022-08-25T06:49:09.809Z,24.07
2022-08-25T06:51:37.028Z,24.17
2022-08-25T06:54:07.441Z,24.27
2022-08-25T06:56:34.795Z,24.39
2022-08-25T06:59:04.468Z,24.47
2022-08-25T07:01:33.605Z,24.57
2022-08-25T07:04:10.055Z,24.66
2022-08-25T07:06:39.134Z,24.75
2022-08-25T07:09:09.231Z,24.87
2022-08-25T07:11:36.737Z,24.95
2022-08-25T07:14:08.663Z,25.05
2022-08-25T07:16:36.590Z,25.17
2022-08-25T07:19:06.016Z,25.27
2022-08-25T07:21:40.025Z,25.34
2022-08-25T07:24:12.718Z,25.44
2022-08-25T07:26:46.572Z,25.52
2022-08-25T07:29:32.950Z,25.58
2022-08-25T07:32:02.643Z,25.72
2022-08-25T07:34:52.405Z,25.85
2022-08-25T07:37:47.594Z,25.98
2022-08-25T07:40:42.699Z,26.13
2022-08-25T07:43:11.063Z,26.23
2022-08-25T07:45:43.871Z,26.36
2022-08-25T07:48:19.926Z,26.48
2022-08-25T07:50:48.780Z,26.60
2022-08-25T07:53:17.854Z,26.69
2022-08-25T07:55:47.165Z,26.71
2022-08-25T07:58:15.803Z,26.78
2022-08-25T08:00:48.799Z,26.83
2022-08-25T08:03:35.329Z,26.89
2022-08-25T08:06:12.387Z,26.95
2022-08-25T08:08:45.668Z,27.00
2022-08-25T08:11:22.714Z,27.06
2022-08-25T08:13:52.151Z,27.17
2022-08-25T08:16:23.622Z,27.32
2022-08-25T08:18:51.131Z,27.43
2022-08-25T08:21:30.076Z,27.54
2022-08-25T08:23:59.158Z,27.64
2022-08-25T08:26:48.240Z,27.78
2022-08-25T08:29:16.392Z,27.95
2022-08-25T08:31:48.658Z,28.04
2022-08-25T08:34:17.305Z,28.17
2022-08-25T08:36:48.099Z,28.24
2022-08-25T08:39:15.486Z,28.26
2022-08-25T08:42:17.886Z,28.34
2022-08-25T08:45:21.827Z,28.39
2022-08-25T08:48:35.718Z,28.51
2022-08-25T08:51:25.617Z,28.67
2022-08-25T08:54:15.529Z,28.82
2022-08-25T08:56:48.646Z,28.88
2022-08-25T08:59:33.658Z,28.89
2022-08-25T09:02:06.109Z,29.01
2022-08-25T09:04:55.475Z,29.10
2022-08-25T09:07:39.790Z,29.18
2022-08-25T09:10:11.019Z,29.23
2022-08-25T09:13:11.354Z,29.43
2022-08-25T09:16:20.381Z,29.51
2022-08-25T09:19:05.581Z,29.64
2022-08-25T09:22:36.698Z,29.81
2022-08-25T09:25:29.549Z,29.85
2022-08-25T09:28:30.407Z,29.96
2022-08-25T09:31:19.469Z,29.98
2022-08-25T09:33:46.956Z,30.05
2022-08-25T09:36:14.748Z,30.14
2022-08-25T09:38:44.535Z,30.22
2022-08-25T09:41:17.541Z,30.24
2022-08-25T09:43:54.779Z,30.33
2022-08-25T09:46:28.786Z,30.50
2022-08-25T09:49:10.697Z,30.72
2022-08-25T09:51:42.855Z,30.86
2022-08-25T09:54:13.476Z,30.88
2022-08-25T09:56:55.998Z,30.93
2022-08-25T09:59:35.648Z,31.00
2022-08-25T10:02:28.431Z,31.08
2022-08-25T10:04:57.110Z,31.15
2022-08-25T10:07:53.079Z,31.21
2022-08-25T10:10:33.433Z,31.33
2022-08-25T10:13:12.389Z,31.44
2022-08-25T10:15:39.747Z,31.52
2022-08-25T10:18:29.604Z,31.48
2022-08-25T10:21:17.474Z,31.55
2022-08-25T10:23:55.760Z,31.68
2022-08-25T10:26:59.675Z,31.73
2022-08-25T10:30:11.434Z,31.91
2022-08-25T10:32:47.410Z,32.10
2022-08-25T10:35:28.887Z,32.19
2022-08-25T10:38:36.430Z,32.28
2022-08-25T10:41:49.511Z,32.34
2022-08-25T10:45:21.824Z,32.43
2022-08-25T10:48:18.952Z,32.52
2022-08-25T10:51:02.838Z,32.63
2022-08-25T10:53:39.347Z,32.78
2022-08-25T10:56:29.116Z,32.82
2022-08-25T10:59:26.940Z,32.93
2022-08-25T11:02:16.163Z,32.96
2022-08-25T11:05:06.840Z,32.97
2022-08-25T11:07:45.851Z,33.08
2022-08-25T11:10:56.640Z,33.19
2022-08-25T11:13:53.101Z,33.26
2022-08-25T11:16:38.773Z,33.43
2022-08-25T11:19:19.104Z,33.48
2022-08-25T11:22:21.207Z,33.60
2022-08-25T11:25:25.544Z,33.71
2022-08-25T11:28:03.395Z,33.69
2022-08-25T11:30:30.603Z,33.78
2022-08-25T11:32:58.448Z,33.66
2022-08-25T11:35:51.123Z,33.72
2022-08-25T11:38:24.935Z,33.78
2022-08-25T11:41:24.405Z,33.87
2022-08-25T11:44:53.215Z,34.01
2022-08-25T11:47:58.863Z,34.15
2022-08-25T11:51:06.729Z,34.24
2022-08-25T11:53:43.406Z,34.28
2022-08-25T11:56:32.799Z,34.32
2022-08-25T11:59:01.890Z,34.37
2022-08-25T12:01:45.309Z,34.47
2022-08-25T12:04:44.879Z,34.53
2022-08-25T12:07:22.050Z,34.52
2022-08-25T12:09:50.208Z,34.47
2022-08-25T12:12:57.921Z,34.48
2022-08-25T12:15:53.091Z,34.56
2022-08-25T12:18:23.139Z,34.67
2022-08-25T12:20:56.291Z,34.81
2022-08-25T12:23:37.710Z,34.86
2022-08-25T12:26:31.709Z,34.94
2022-08-25T12:29:10.951Z,35.07
2022-08-25T12:32:07.267Z,35.17
2022-08-25T12:35:15.773Z,35.23
2022-08-25T12:38:20.594Z,35.17
2022-08-25T12:40:47.626Z,35.03
2022-08-25T12:43:20.526Z,34.98
2022-08-25T12:45:55.528Z,34.97
2022-08-25T12:48:28.306Z,35.07
2022-08-25T12:51:20.767Z,35.09
2022-08-25T12:54:25.310Z,34.94
2022-08-25T12:57:07.996Z,34.89
2022-08-25T12:59:47.041Z,34.82
2022-08-25T13:03:14.156Z,34.84
2022-08-25T13:06:36.424Z,34.87
2022-08-25T13:09:22.534Z,34.91
2022-08-25T13:12:17.984Z,34.94
2022-08-25T13:14:54.307Z,35.06
2022-08-25T13:17:27.664Z,35.22
2022-08-25T13:20:29.139Z,35.32
2022-08-25T13:23:00.965Z,35.21
2022-08-25T13:25:33.260Z,35.22
2022-08-25T13:28:05.263Z,35.16
2022-08-25T13:30:37.099Z,35.26
2022-08-25T13:33:23.830Z,35.48
2022-08-25T13:36:16.646Z,35.66
2022-08-25T13:38:46.941Z,35.61
2022-08-25T13:41:28.960Z,35.40
2022-08-25T13:44:00.799Z,35.36
2022-08-25T13:46:29.065Z,35.30
2022-08-25T13:49:06.939Z,35.40
2022-08-25T13:51:39.329Z,35.54
2022-08-25T13:54:20.205Z,35.62
2022-08-25T13:56:47.649Z,35.50
2022-08-25T13:59:26.846Z,35.35
2022-08-25T14:01:55.664Z,35.45
2022-08-25T14:04:51.206Z,35.52
2022-08-25T14:07:22.413Z,35.45
2022-08-25T14:09:58.319Z,35.55
2022-08-25T14:12:45.388Z,35.67
2022-08-25T14:15:22.336Z,35.80
2022-08-25T14:18:21.686Z,35.87
2022-08-25T14:20:57.327Z,35.98
2022-08-25T14:23:30.571Z,36.00
2022-08-25T14:25:58.743Z,36.06
2022-08-25T14:28:30.230Z,36.11
2022-08-25T14:31:06.645Z,36.09
2022-08-25T14:33:58.521Z,36.13
2022-08-25T14:36:30.414Z,36.23
2022-08-25T14:38:58.001Z,36.17
2022-08-25T14:41:26.936Z,35.95
2022-08-25T14:43:54.054Z,35.87
2022-08-25T14:46:29.297Z,35.86
2022-08-25T14:49:05.008Z,35.84
2022-08-25T14:51:34.242Z,35.95
2022-08-25T14:54:11.243Z,36.05
2022-08-25T14:56:38.950Z,36.03
2022-08-25T14:59:10.459Z,36.06
2022-08-25T15:01:37.813Z,36.19
2022-08-25T15:04:15.664Z,36.31
2022-08-25T15:06:44.679Z,36.41
2022-08-25T15:09:16.539Z,36.43
2022-08-25T15:11:48.226Z,36.40
2022-08-25T15:14:28.765Z,36.38
2022-08-25T15:17:02.159Z,36.37
2022-08-25T15:19:30.538Z,36.42
2022-08-25T15:21:58.225Z,36.45
2022-08-25T15:24:28.692Z,36.40
2022-08-25T15:27:01.763Z,36.42
2022-08-25T15:29:30.894Z,36.42
2022-08-25T15:32:00.423Z,36.46
2022-08-25T15:34:29.654Z,36.51
2022-08-25T15:36:58.912Z,36.44
2022-08-25T15:39:26.943Z,36.37
2022-08-25T15:41:54.179Z,36.27
2022-08-25T15:44:24.138Z,36.21
2022-08-25T15:46:53.625Z,36.15
2022-08-25T15:49:24.225Z,36.10
2022-08-25T15:51:55.679Z,36.12
2022-08-25T15:54:26.791Z,36.12
2022-08-25T15:56:56.766Z,36.10
2022-08-25T15:59:25.687Z,36.11
2022-08-25T16:01:55.815Z,36.12
2022-08-25T16:04:26.883Z,36.08
2022-08-25T16:06:55.596Z,36.09
2022-08-25T16:09:23.760Z,36.08
2022-08-25T16:11:56.707Z,36.11
2022-08-25T16:14:27.650Z,36.16
2022-08-25T16:16:58.496Z,36.26
2022-08-25T16:19:29.924Z,36.38
2022-08-25T16:21:58.419Z,36.46
2022-08-25T16:24:27.184Z,36.50
2022-08-25T16:26:55.870Z,36.53
2022-08-25T16:29:23.911Z,36.43
2022-08-25T16:31:53.535Z,36.22
2022-08-25T16:34:24.682Z,36.09
2022-08-25T16:36:54.603Z,36.00
2022-08-25T16:39:23.833Z,36.11
2022-08-25T16:41:52.502Z,36.36
2022-08-25T16:44:22.471Z,36.59
2022-08-25T16:46:54.186Z,36.81
2022-08-25T16:49:24.466Z,36.99
2022-08-25T16:51:57.534Z,37.03
2022-08-25T16:54:45.271Z,36.82
2022-08-25T16:57:13.819Z,36.52
2022-08-25T16:59:42.454Z,36.38
2022-08-25T17:02:11.087Z,36.34
2022-08-25T17:04:38.273Z,36.26
2022-08-25T17:07:05.553Z,36.12
2022-08-25T17:09:35.238Z,35.91
2022-08-25T17:12:02.831Z,35.73
2022-08-25T17:14:29.871Z,35.71
2022-08-25T17:16:57.851Z,35.63
2022-08-25T17:19:25.831Z,35.39
2022-08-25T17:21:55.227Z,35.11
2022-08-25T17:24:29.292Z,34.82
2022-08-25T17:26:58.539Z,34.48
2022-08-25T17:29:26.857Z,34.12
2022-08-25T17:31:54.712Z,33.85
2022-08-25T17:34:23.298Z,33.63
2022-08-25T17:36:53.461Z,33.38
2022-08-25T17:39:24.212Z,33.13
2022-08-25T17:41:53.047Z,32.90
2022-08-25T17:44:20.986Z,32.68
2022-08-25T17:46:51.564Z,32.53
2022-08-25T17:49:20.015Z,32.41
2022-08-25T17:51:47.628Z,32.28
2022-08-25T17:54:16.363Z,32.20
2022-08-25T17:56:44.312Z,32.01
2022-08-25T17:59:14.426Z,31.81
2022-08-25T18:01:42.321Z,31.60
2022-08-25T18:04:17.330Z,31.43
2022-08-25T18:06:47.501Z,31.21
2022-08-25T18:09:17.498Z,31.02
2022-08-25T18:11:45.867Z,30.83
2022-08-25T18:14:16.424Z,30.65
2022-08-25T18:16:43.890Z,30.49
2022-08-25T18:19:12.421Z,30.30
2022-08-25T18:21:43.674Z,30.14
2022-08-25T18:24:11.754Z,29.96
2022-08-25T18:26:40.522Z,29.76
2022-08-25T18:29:12.035Z,29.57
2022-08-25T18:31:41.768Z,29.38
2022-08-25T18:34:13.527Z,29.25
2022-08-25T18:36:41.838Z,29.13
2022-08-25T18:39:31.565Z,29.03
2022-08-25T18:42:02.452Z,28.88
2022-08-25T18:44:29.875Z,28.74
2022-08-25T18:46:57.489Z,28.64
2022-08-25T18:49:28.902Z,28.54
2022-08-25T18:51:56.059Z,28.44
2022-08-25T18:54:23.970Z,28.30
2022-08-25T18:56:54.540Z,28.17
2022-08-25T18:59:23.725Z,28.03
2022-08-25T19:01:53.800Z,27.96
2022-08-25T19:04:28.716Z,27.86
2022-08-25T19:07:01.138Z,27.76
2022-08-25T19:09:29.345Z,27.65
2022-08-25T19:11:58.243Z,27.55
2022-08-25T19:14:26.419Z,27.49
2022-08-25T19:16:54.603Z,27.40
2022-08-25T19:19:24.085Z,27.28
2022-08-25T19:21:51.635Z,27.18
2022-08-25T19:24:19.773Z,27.06
2022-08-25T19:26:47.323Z,26.93
2022-08-25T19:29:18.129Z,26.85
2022-08-25T19:31:48.048Z,26.73
2022-08-25T19:34:25.328Z,26.64
2022-08-25T19:36:58.536Z,26.56
2022-08-25T19:39:28.880Z,26.45
2022-08-25T19:41:58.349Z,26.35
2022-08-25T19:44:26.984Z,26.28
2022-08-25T19:46:56.455Z,26.21
2022-08-25T19:49:40.633Z,26.15
2022-08-25T19:52:11.957Z,26.08
2022-08-25T19:54:48.305Z,26.03
2022-08-25T19:57:27.698Z,25.95
2022-08-25T19:59:55.994Z,25.87
2022-08-25T20:02:26.270Z,25.83
2022-08-25T20:04:59.914Z,25.84
2022-08-25T20:07:30.952Z,25.70
2022-08-25T20:10:01.245Z,25.67
2022-08-25T20:12:29.333Z,25.66
2022-08-25T20:14:56.915Z,25.60
2022-08-25T20:17:28.259Z,25.58
2022-08-25T20:20:01.182Z,25.57
2022-08-25T20:22:32.642Z,25.47
2022-08-25T20:25:24.965Z,25.37
2022-08-25T20:27:56.192Z,25.34
2022-08-25T20:30:29.798Z,25.36
2022-08-25T20:32:58.143Z,25.33
2022-08-25T20:35:27.487Z,25.33
2022-08-25T20:37:58.053Z,25.32
2022-08-25T20:40:28.632Z,25.30
2022-08-25T20:43:01.889Z,25.31
2022-08-25T20:45:30.999Z,25.34
2022-08-25T20:47:58.048Z,25.34
2022-08-25T20:50:26.972Z,25.31
2022-08-25T20:52:56.613Z,25.23
2022-08-25T20:55:25.142Z,25.14
2022-08-25T20:57:53.745Z,25.04
2022-08-25T21:00:23.494Z,24.98
2022-08-25T21:02:52.845Z,24.88
2022-08-25T21:05:20.186Z,24.84
2022-08-25T21:07:47.382Z,24.79
2022-08-25T21:10:16.531Z,24.73
2022-08-25T21:12:44.995Z,24.72
2022-08-25T21:15:18.149Z,24.71
2022-08-25T21:17:51.106Z,24.68
2022-08-25T21:20:18.362Z,24.61
2022-08-25T21:22:45.528Z,24.57
2022-08-25T21:25:16.120Z,24.53
2022-08-25T21:27:43.608Z,24.51
2022-08-25T21:30:13.039Z,24.46
2022-08-25T21:32:40.002Z,24.41
2022-08-25T21:35:22.858Z,24.37
2022-08-25T21:37:53.265Z,24.33
2022-08-25T21:40:22.911Z,24.27
2022-08-25T21:42:51.002Z,24.24
2022-08-25T21:45:21.015Z,24.21
2022-08-25T21:47:50.069Z,24.14
2022-08-25T21:50:19.801Z,24.07
2022-08-25T21:52:46.929Z,24.02
2022-08-25T21:55:21.568Z,23.97
2022-08-25T21:57:49.674Z,23.87
2022-08-25T22:00:24.917Z,23.76
2022-08-25T22:02:52.035Z,23.68
2022-08-25T22:05:19.200Z,23.62
2022-08-25T22:07:46.772Z,23.59
2022-08-25T22:10:17.657Z,23.52
2022-08-25T22:12:47.732Z,23.48
2022-08-25T22:15:16.791Z,23.45
2022-08-25T22:17:48.054Z,23.40
2022-08-25T22:20:17.316Z,23.35
2022-08-25T22:22:44.396Z,23.29
2022-08-25T22:25:12.991Z,23.24
2022-08-25T22:27:40.047Z,23.20
2022-08-25T22:30:07.981Z,23.13
2022-08-25T22:32:35.612Z,23.06
2022-08-25T22:35:02.908Z,22.98
2022-08-25T22:37:31.440Z,22.91
2022-08-25T22:40:02.769Z,22.86
2022-08-25T22:42:30.115Z,22.82
2022-08-25T22:44:58.260Z,22.76
2022-08-25T22:47:25.254Z,22.71
2022-08-25T22:49:59.097Z,22.63
2022-08-25T22:52:33.306Z,22.58
2022-08-25T22:55:02.832Z,22.55
2022-08-25T22:57:30.030Z,22.53
2022-08-25T22:59:59.069Z,22.48
2022-08-25T23:02:26.377Z,22.46
2022-08-25T23:04:57.807Z,22.43
2022-08-25T23:07:29.172Z,22.40
2022-08-25T23:09:59.753Z,22.40
2022-08-25T23:12:26.916Z,22.37
2022-08-25T23:14:54.587Z,22.34
2022-08-25T23:17:22.790Z,22.33
2022-08-25T23:19:50.217Z,22.29
2022-08-25T23:22:17.565Z,22.27
2022-08-25T23:24:48.721Z,22.25
2022-08-25T23:27:19.361Z,22.20
2022-08-25T23:29:49.473Z,22.16
2022-08-25T23:34:46.985Z,22.10
2022-08-25T23:37:18.547Z,22.06
2022-08-25T23:39:49.620Z,22.02
2022-08-25T23:42:19.316Z,21.99
2022-08-25T23:44:48.779Z,21.93
2022-08-25T23:47:16.485Z,21.88
2022-08-25T23:49:43.852Z,21.83
2022-08-25T23:52:10.916Z,21.76
2022-08-25T23:54:37.930Z,21.70
2022-08-25T23:57:06.756Z,21.66
2022-08-25T23:59:34.150Z,21.58
